createdAt,value
2022-09-25T00:01:17.222Z,13.53
2022-09-25T00:03:45.060Z,13.60
2022-09-25T00:06:14.726Z,13.63
2022-09-25T00:08:44.138Z,13.70
2022-09-25T00:11:14.034Z,13.66
2022-09-25T00:13:42.698Z,13.63
2022-09-25T00:16:11.647Z,13.64
2022-09-25T00:18:57.155Z,13.76
2022-09-25T00:21:31.289Z,13.95
2022-09-25T00:24:02.073Z,13.93
2022-09-25T00:26:32.385Z,13.94
2022-09-25T00:29:01.245Z,13.80
2022-09-25T00:31:29.690Z,13.76
2022-09-25T00:34:00.878Z,13.71
2022-09-25T00:36:29.655Z,13.98
2022-09-25T00:38:58.309Z,13.91
2022-09-25T00:41:30.040Z,13.91
2022-09-25T00:43:58.714Z,13.80
2022-09-25T00:46:30.109Z,13.60
2022-09-25T00:49:03.364Z,13.47
2022-09-25T00:51:38.853Z,13.39
2022-09-25T00:54:09.006Z,13.45
2022-09-25T00:56:42.425Z,13.45
2022-09-25T00:59:13.741Z,13.36
2022-09-25T01:01:41.553Z,13.20
2022-09-25T01:04:13.372Z,13.32
2022-09-25T01:06:41.998Z,13.22
2022-09-25T01:09:09.856Z,13.25
2022-09-25T01:11:38.942Z,13.33
2022-09-25T01:14:08.783Z,13.49
2022-09-25T01:16:43.412Z,13.36
2022-09-25T01:19:23.130Z,13.30
2022-09-25T01:21:54.037Z,13.33
2022-09-25T01:24:40.872Z,13.18
2022-09-25T01:27:32.147Z,13.08
2022-09-25T01:30:07.013Z,13.11
2022-09-25T01:32:42.640Z,13.19
2022-09-25T01:35:16.415Z,13.08
2022-09-25T01:37:48.704Z,13.09
2022-09-25T01:40:23.628Z,13.01
2022-09-25T01:42:55.991Z,12.92
2022-09-25T01:45:32.998Z,12.88
2022-09-25T01:48:02.413Z,12.87
2022-09-25T01:50:34.118Z,12.84
2022-09-25T01:53:08.371Z,12.95
2022-09-25T01:55:40.563Z,12.91
2022-09-25T01:58:12.401Z,12.75
2022-09-25T02:00:45.555Z,12.87
2022-09-25T02:03:18.317Z,12.87
2022-09-25T02:05:49.860Z,12.75
2022-09-25T02:08:23.206Z,12.78
2022-09-25T02:10:55.951Z,12.95
2022-09-25T02:13:27.005Z,12.89
2022-09-25T02:15:58.922Z,12.74
2022-09-25T02:18:46.988Z,12.74
2022-09-25T02:21:19.682Z,12.74
2022-09-25T02:23:54.188Z,12.75
2022-09-25T02:26:27.525Z,12.91
2022-09-25T02:28:56.405Z,12.75
2022-09-25T02:31:31.038Z,12.75
2022-09-25T02:34:00.058Z,12.72
2022-09-25T02:36:27.845Z,12.77
2022-09-25T02:38:57.171Z,12.84
2022-09-25T02:41:31.447Z,12.67
2022-09-25T02:44:08.931Z,12.78
2022-09-25T02:46:45.168Z,12.80
2022-09-25T02:49:21.700Z,12.69
2022-09-25T02:51:57.630Z,12.60
2022-09-25T02:54:32.316Z,12.69
2022-09-25T02:57:07.161Z,12.51
2022-09-25T02:59:38.404Z,12.45
2022-09-25T03:02:09.273Z,12.50
2022-09-25T03:04:39.021Z,12.63
2022-09-25T03:07:07.327Z,12.54
2022-09-25T03:09:38.608Z,12.44
2022-09-25T03:12:06.799Z,12.54
2022-09-25T03:14:34.525Z,12.40
2022-09-25T03:17:05.386Z,12.65
2022-09-25T03:19:34.914Z,12.54
2022-09-25T03:22:03.569Z,12.43
2022-09-25T03:24:31.336Z,12.45
2022-09-25T03:26:59.204Z,12.41
2022-09-25T03:29:27.304Z,12.41
2022-09-25T03:31:55.438Z,12.57
2022-09-25T03:34:23.278Z,12.48
2022-09-25T03:36:52.349Z,12.60
2022-09-25T03:39:20.095Z,12.51
2022-09-25T03:41:47.969Z,12.54
2022-09-25T03:44:15.822Z,12.40
2022-09-25T03:46:43.535Z,12.61
2022-09-25T03:49:12.686Z,12.54
2022-09-25T03:51:42.029Z,12.38
2022-09-25T03:54:10.958Z,12.30
2022-09-25T03:56:38.685Z,12.09
2022-09-25T03:59:06.513Z,12.41
2022-09-25T04:01:34.583Z,12.41
2022-09-25T04:04:03.210Z,12.30
2022-09-25T04:06:31.077Z,12.22
2022-09-25T04:08:58.842Z,12.33
2022-09-25T04:11:28.103Z,12.27
2022-09-25T04:13:56.448Z,12.26
2022-09-25T04:16:24.235Z,12.22
2022-09-25T04:18:52.025Z,12.33
2022-09-25T04:21:19.825Z,12.27
2022-09-25T04:24:07.625Z,12.48
2022-09-25T04:26:36.770Z,12.53
2022-09-25T04:29:04.752Z,12.53
2022-09-25T04:31:32.871Z,12.41
2022-09-25T04:33:59.950Z,12.43
2022-09-25T04:36:27.729Z,12.38
2022-09-25T04:38:55.487Z,12.16
2022-09-25T04:41:23.220Z,12.41
2022-09-25T04:43:52.330Z,12.45
2022-09-25T04:46:22.447Z,12.64
2022-09-25T04:48:50.866Z,12.53
2022-09-25T04:51:18.823Z,12.47
2022-09-25T04:53:46.981Z,12.30
2022-09-25T04:56:16.253Z,12.26
2022-09-25T04:58:46.075Z,12.45
2022-09-25T05:01:15.318Z,12.47
2022-09-25T05:03:43.817Z,12.57
2022-09-25T05:07:53.014Z,12.61
2022-09-25T05:10:21.779Z,12.60
2022-09-25T05:12:50.278Z,12.51
2022-09-25T05:15:18.086Z,12.44
2022-09-25T05:17:45.839Z,12.33
2022-09-25T05:20:13.593Z,12.37
2022-09-25T05:22:41.343Z,12.41
2022-09-25T05:25:11.027Z,12.72
2022-09-25T05:27:38.768Z,12.60
2022-09-25T05:30:09.501Z,12.82
2022-09-25T05:32:37.218Z,12.71
2022-09-25T05:35:05.843Z,12.53
2022-09-25T05:37:34.422Z,12.61
2022-09-25T05:40:02.592Z,12.68
2022-09-25T05:42:32.577Z,12.82
2022-09-25T05:45:04.927Z,12.77
2022-09-25T05:47:35.089Z,12.88
2022-09-25T05:50:04.617Z,13.11
2022-09-25T05:52:32.771Z,13.22
2022-09-25T05:55:00.834Z,13.12
2022-09-25T05:57:31.264Z,13.04
2022-09-25T06:00:00.339Z,12.95
2022-09-25T06:02:28.482Z,13.16
2022-09-25T06:04:56.287Z,13.12
2022-09-25T06:07:24.122Z,12.96
2022-09-25T06:09:51.869Z,12.78
2022-09-25T06:12:19.706Z,12.88
2022-09-25T06:14:48.148Z,13.09
2022-09-25T06:17:17.239Z,12.94
2022-09-25T06:19:44.996Z,12.63
2022-09-25T06:22:12.901Z,12.78
2022-09-25T06:24:40.723Z,13.04
2022-09-25T06:27:08.878Z,13.20
2022-09-25T06:29:36.865Z,13.27
2022-09-25T06:32:04.680Z,13.35
2022-09-25T06:34:34.017Z,13.42
2022-09-25T06:37:02.227Z,13.35
2022-09-25T06:39:33.112Z,13.29
2022-09-25T06:42:00.887Z,13.15
2022-09-25T06:44:28.909Z,13.02
2022-09-25T06:46:56.634Z,12.96
2022-09-25T06:49:24.392Z,12.96
2022-09-25T06:51:53.862Z,13.13
2022-09-25T06:54:21.677Z,13.12
2022-09-25T06:56:50.329Z,13.33
2022-09-25T06:59:18.413Z,13.22
2022-09-25T07:01:46.252Z,13.52
2022-09-25T07:04:13.480Z,13.42
2022-09-25T07:06:41.317Z,13.64
2022-09-25T07:09:10.782Z,13.56
2022-09-25T07:11:39.556Z,13.80
2022-09-25T07:14:07.425Z,14.45
2022-09-25T07:16:35.579Z,14.71
2022-09-25T07:19:04.340Z,15.75
2022-09-25T07:21:32.394Z,16.04
2022-09-25T07:24:00.455Z,16.98
2022-09-25T07:26:33.864Z,19.01
2022-09-25T07:29:03.844Z,20.63
2022-09-25T07:31:33.572Z,21.82
2022-09-25T07:34:09.091Z,22.98
2022-09-25T07:36:38.533Z,23.37
2022-09-25T07:39:07.194Z,23.28
2022-09-25T07:41:37.454Z,23.45
2022-09-25T07:44:28.117Z,22.19
2022-09-25T07:46:53.260Z,23.58
2022-09-25T07:49:21.000Z,24.12
2022-09-25T07:51:48.754Z,24.34
2022-09-25T07:54:16.456Z,24.37
2022-09-25T07:56:45.533Z,24.92
2022-09-25T07:59:13.416Z,25.38
2022-09-25T08:01:44.242Z,25.89
2022-09-25T08:04:14.117Z,26.34
2022-09-25T08:06:42.024Z,26.73
2022-09-25T08:09:12.020Z,26.75
2022-09-25T08:11:39.826Z,26.56
2022-09-25T08:14:08.919Z,27.13
2022-09-25T08:16:36.665Z,27.13
2022-09-25T08:19:05.010Z,27.09
2022-09-25T08:21:32.806Z,26.85
2022-09-25T08:24:01.088Z,26.34
2022-09-25T08:26:29.360Z,26.99
2022-09-25T08:28:57.187Z,27.81
2022-09-25T08:31:26.453Z,26.72
2022-09-25T08:33:55.479Z,27.33
2022-09-25T08:36:23.737Z,27.91
2022-09-25T08:38:56.092Z,25.91
2022-09-25T08:41:26.066Z,24.88
2022-09-25T08:43:59.674Z,24.88
2022-09-25T08:46:56.714Z,23.55
2022-09-25T08:49:27.263Z,23.85
2022-09-25T08:52:01.019Z,24.41
2022-09-25T08:54:31.174Z,22.32
2022-09-25T08:57:02.721Z,21.85
2022-09-25T08:59:35.768Z,21.34
2022-09-25T09:02:12.905Z,23.89
2022-09-25T09:04:46.143Z,22.97
2022-09-25T09:07:26.868Z,24.50
2022-09-25T09:10:01.499Z,24.78
2022-09-25T09:12:36.947Z,25.58
2022-09-25T09:15:21.721Z,26.07
2022-09-25T09:17:50.835Z,25.77
2022-09-25T09:20:20.313Z,24.82
2022-09-25T09:22:52.729Z,26.04
2022-09-25T09:25:28.893Z,26.28
2022-09-25T09:28:45.752Z,26.52
2022-09-25T09:31:22.176Z,26.05
2022-09-25T09:33:58.563Z,27.12
2022-09-25T09:36:35.989Z,27.53
2022-09-25T09:39:09.955Z,25.60
2022-09-25T09:41:50.768Z,23.01
2022-09-25T09:44:35.044Z,21.50
2022-09-25T09:47:12.470Z,20.82
2022-09-25T09:49:46.282Z,20.79
2022-09-25T09:52:18.269Z,21.10
2022-09-25T09:54:52.223Z,22.49
2022-09-25T09:57:22.878Z,22.25
2022-09-25T09:59:55.139Z,20.76
2022-09-25T10:02:32.135Z,22.19
2022-09-25T10:05:05.498Z,24.09
2022-09-25T10:07:36.201Z,25.22
2022-09-25T10:10:12.845Z,26.49
2022-09-25T10:12:42.362Z,25.02
2022-09-25T10:15:19.015Z,23.92
2022-09-25T10:17:47.422Z,23.56
2022-09-25T10:20:21.516Z,24.43
2022-09-25T10:22:53.791Z,25.28
2022-09-25T10:25:37.030Z,26.24
2022-09-25T10:28:23.340Z,26.98
2022-09-25T10:30:52.231Z,26.69
2022-09-25T10:33:22.721Z,26.30
2022-09-25T10:35:54.837Z,26.78
2022-09-25T10:38:39.390Z,27.00
2022-09-25T10:41:10.399Z,25.62
2022-09-25T10:43:52.183Z,27.20
2022-09-25T10:46:48.864Z,27.39
2022-09-25T10:49:37.666Z,27.31
2022-09-25T10:52:08.851Z,24.17
2022-09-25T10:54:42.132Z,24.44
2022-09-25T10:57:34.184Z,26.05
2022-09-25T11:00:03.317Z,25.22
2022-09-25T11:02:36.307Z,26.52
2022-09-25T11:05:05.262Z,26.20
2022-09-25T11:07:34.893Z,26.34
2022-09-25T11:10:02.810Z,25.98
2022-09-25T11:12:30.800Z,25.02
2022-09-25T11:15:02.305Z,24.37
2022-09-25T11:17:33.366Z,23.01
2022-09-25T11:20:20.963Z,22.28
2022-09-25T11:22:57.418Z,20.71
2022-09-25T11:25:33.209Z,19.74
2022-09-25T11:28:06.811Z,19.34
2022-09-25T11:30:44.353Z,19.98
2022-09-25T11:33:23.117Z,22.06
2022-09-25T11:35:54.428Z,22.28
2022-09-25T11:38:50.890Z,22.53
2022-09-25T11:41:26.591Z,23.54
2022-09-25T11:44:09.678Z,24.19
2022-09-25T11:46:44.660Z,24.92
2022-09-25T11:49:20.338Z,25.58
2022-09-25T11:52:16.573Z,25.02
2022-09-25T11:55:00.154Z,25.56
2022-09-25T11:57:35.687Z,25.20
2022-09-25T12:00:11.030Z,24.69
2022-09-25T12:03:01.024Z,23.66
2022-09-25T12:05:48.077Z,24.27
2022-09-25T12:08:27.308Z,20.65
2022-09-25T12:11:05.469Z,19.22
2022-09-25T12:13:45.627Z,20.41
2022-09-25T12:16:19.635Z,18.67
2022-09-25T12:19:19.530Z,18.03
2022-09-25T12:21:53.470Z,17.70
2022-09-25T12:24:33.328Z,17.34
2022-09-25T12:27:10.808Z,19.01
2022-09-25T12:30:03.482Z,20.71
2022-09-25T12:32:41.726Z,22.15
2022-09-25T12:35:23.800Z,22.71
2022-09-25T12:37:56.092Z,22.35
2022-09-25T12:40:30.257Z,23.34
2022-09-25T12:43:02.924Z,23.27
2022-09-25T12:45:34.472Z,23.31
2022-09-25T12:48:08.617Z,21.40
2022-09-25T12:50:44.104Z,20.36
2022-09-25T12:53:24.523Z,19.43
2022-09-25T12:55:58.218Z,18.92
2022-09-25T12:58:39.056Z,18.91
2022-09-25T13:01:14.918Z,18.45
2022-09-25T13:03:48.399Z,18.29
2022-09-25T13:06:23.752Z,18.24
2022-09-25T13:08:57.831Z,17.93
2022-09-25T13:11:36.083Z,18.07
2022-09-25T13:14:16.682Z,18.40
2022-09-25T13:16:46.495Z,18.24
2022-09-25T13:19:25.604Z,18.69
2022-09-25T13:21:59.922Z,19.75
2022-09-25T13:24:28.431Z,20.22
2022-09-25T13:27:03.340Z,19.42
2022-09-25T13:29:36.418Z,19.88
2022-09-25T13:32:07.523Z,19.93
2022-09-25T13:34:39.066Z,19.97
2022-09-25T13:37:09.137Z,19.53
2022-09-25T13:39:58.386Z,18.79
2022-09-25T13:42:29.830Z,18.52
2022-09-25T13:45:07.618Z,18.00
2022-09-25T13:47:57.415Z,17.66
2022-09-25T13:50:33.552Z,17.38
2022-09-25T13:53:23.879Z,17.21
2022-09-25T13:56:15.285Z,17.49
2022-09-25T13:59:20.236Z,17.43
2022-09-25T14:01:53.791Z,17.28
2022-09-25T14:04:28.858Z,17.25
2022-09-25T14:07:04.668Z,17.34
2022-09-25T14:09:35.189Z,17.27
2022-09-25T14:12:10.048Z,17.43
2022-09-25T14:14:45.368Z,17.45
2022-09-25T14:17:16.965Z,17.53
2022-09-25T14:19:48.957Z,17.69
2022-09-25T14:22:23.038Z,17.61
2022-09-25T14:24:50.751Z,17.45
2022-09-25T14:27:24.060Z,17.32
2022-09-25T14:29:52.022Z,17.18
2022-09-25T14:32:54.491Z,17.04
2022-09-25T14:35:35.962Z,16.95
2022-09-25T14:38:18.564Z,16.91
2022-09-25T14:40:58.687Z,17.04
2022-09-25T14:43:52.930Z,16.94
2022-09-25T14:46:22.685Z,16.92
2022-09-25T14:48:55.285Z,16.91
2022-09-25T14:51:27.496Z,16.83
2022-09-25T14:53:58.309Z,16.84
2022-09-25T14:56:27.151Z,16.92
2022-09-25T14:58:58.903Z,17.10
2022-09-25T15:01:29.476Z,17.07
2022-09-25T15:04:02.687Z,17.04
2022-09-25T15:06:32.767Z,17.10
2022-09-25T15:09:04.124Z,16.95
2022-09-25T15:11:41.205Z,16.88
2022-09-25T15:14:12.865Z,16.81
2022-09-25T15:17:00.975Z,16.83
2022-09-25T15:19:34.616Z,16.80
2022-09-25T15:22:02.758Z,16.71
2022-09-25T15:24:32.705Z,16.56
2022-09-25T15:27:03.783Z,16.47
2022-09-25T15:29:35.688Z,16.30
2022-09-25T15:32:05.101Z,16.12
2022-09-25T15:34:34.732Z,16.15
2022-09-25T15:37:17.511Z,15.88
2022-09-25T15:39:45.856Z,15.84
2022-09-25T15:42:15.001Z,15.79
2022-09-25T15:44:43.466Z,15.67
2022-09-25T15:47:50.270Z,15.61
2022-09-25T15:50:24.591Z,15.61
2022-09-25T15:52:54.665Z,15.62
2022-09-25T15:55:23.464Z,15.72
2022-09-25T15:57:53.669Z,15.67
2022-09-25T16:00:40.747Z,15.62
2022-09-25T16:03:34.238Z,15.62
2022-09-25T16:06:04.298Z,15.54
2022-09-25T16:08:33.624Z,15.50
2022-09-25T16:11:15.529Z,15.43
2022-09-25T16:13:46.643Z,15.28
2022-09-25T16:16:24.151Z,15.16
2022-09-25T16:18:54.450Z,15.13
2022-09-25T16:21:28.773Z,14.99
2022-09-25T16:23:59.691Z,14.97
2022-09-25T16:26:32.552Z,14.90
2022-09-25T16:29:19.518Z,14.76
2022-09-25T16:31:47.840Z,14.64
2022-09-25T16:34:23.864Z,14.55
2022-09-25T16:36:54.555Z,14.42
2022-09-25T16:39:25.625Z,14.34
2022-09-25T16:41:54.151Z,14.21
2022-09-25T16:44:24.361Z,14.17
2022-09-25T16:47:16.495Z,14.13
2022-09-25T16:49:44.838Z,13.95
2022-09-25T16:52:20.330Z,13.86
2022-09-25T16:54:53.101Z,13.74
2022-09-25T16:57:21.771Z,13.62
2022-09-25T16:59:50.009Z,13.49
2022-09-25T17:02:25.791Z,13.30
2022-09-25T17:04:53.698Z,13.18
2022-09-25T17:07:22.916Z,13.04
2022-09-25T17:09:50.748Z,12.89
2022-09-25T17:12:21.410Z,12.82
2022-09-25T17:14:50.397Z,12.89
2022-09-25T17:17:20.516Z,12.98
2022-09-25T17:19:48.515Z,12.99
2022-09-25T17:22:16.296Z,13.04
2022-09-25T17:24:45.649Z,13.11
2022-09-25T17:27:14.801Z,13.22
2022-09-25T17:29:43.591Z,13.32
2022-09-25T17:32:15.247Z,13.26
2022-09-25T17:34:44.989Z,13.29
2022-09-25T17:37:12.866Z,13.32
2022-09-25T17:39:40.653Z,13.29
2022-09-25T17:42:11.484Z,13.25
2022-09-25T17:44:42.576Z,13.19
2022-09-25T17:47:11.435Z,13.16
2022-09-25T17:49:39.182Z,13.09
2022-09-25T17:52:07.036Z,13.05
2022-09-25T17:54:34.813Z,13.02
2022-09-25T17:57:02.658Z,12.99
2022-09-25T17:59:32.013Z,12.96
2022-09-25T18:02:00.216Z,12.92
2022-09-25T18:04:28.062Z,12.91
2022-09-25T18:06:56.717Z,12.92
2022-09-25T18:09:24.515Z,12.96
2022-09-25T18:11:52.586Z,13.02
2022-09-25T18:14:20.361Z,12.92
2022-09-25T18:16:49.500Z,12.89
2022-09-25T18:19:36.458Z,12.84
2022-09-25T18:22:21.461Z,12.82
2022-09-25T18:24:54.277Z,12.87
2022-09-25T18:27:22.305Z,12.88
2022-09-25T18:29:50.104Z,12.95
2022-09-25T18:32:19.444Z,12.99
2022-09-25T18:34:47.029Z,13.04
2022-09-25T18:37:15.001Z,13.09
2022-09-25T18:39:43.511Z,13.09
2022-09-25T18:42:11.337Z,13.09
2022-09-25T18:44:42.527Z,13.04
2022-09-25T18:47:11.111Z,12.92
2022-09-25T18:49:40.256Z,12.94
2022-09-25T18:52:08.078Z,12.87
2022-09-25T18:54:35.962Z,12.91
2022-09-25T18:57:04.221Z,12.84
2022-09-25T18:59:32.005Z,12.75
2022-09-25T19:02:00.055Z,12.69
2022-09-25T19:04:28.684Z,12.72
2022-09-25T19:06:57.845Z,12.57
2022-09-25T19:09:27.733Z,12.41
2022-09-25T19:11:56.114Z,12.29
2022-09-25T19:14:24.881Z,12.30
2022-09-25T19:16:53.168Z,12.20
2022-09-25T19:19:21.271Z,12.30
2022-09-25T19:21:49.282Z,12.34
2022-09-25T19:24:19.231Z,12.31
2022-09-25T19:26:48.042Z,12.34
2022-09-25T19:29:15.964Z,12.34
2022-09-25T19:31:44.302Z,12.23
2022-09-25T19:34:12.401Z,12.02
2022-09-25T19:36:40.143Z,11.86
2022-09-25T19:39:07.996Z,11.69
2022-09-25T19:41:40.759Z,11.46
2022-09-25T19:44:13.358Z,11.52
2022-09-25T19:46:42.235Z,11.54
2022-09-25T19:49:10.218Z,11.49
2022-09-25T19:51:38.139Z,11.34
2022-09-25T19:54:07.374Z,11.21
2022-09-25T19:56:36.091Z,11.08
2022-09-25T19:59:06.976Z,11.12
2022-09-25T20:01:35.134Z,11.06
2022-09-25T20:04:07.981Z,11.06
2022-09-25T20:06:37.642Z,11.04
2022-09-25T20:09:06.230Z,11.06
2022-09-25T20:11:35.167Z,11.15
2022-09-25T20:14:06.033Z,11.01
2022-09-25T20:16:33.934Z,10.79
2022-09-25T20:19:03.586Z,10.61
2022-09-25T20:21:33.664Z,10.43
2022-09-25T20:24:03.041Z,10.39
2022-09-25T20:26:31.178Z,10.35
2022-09-25T20:29:02.741Z,10.50
2022-09-25T20:31:34.288Z,10.60
2022-09-25T20:34:02.828Z,10.61
2022-09-25T20:36:30.933Z,10.79
2022-09-25T20:38:59.058Z,10.74
2022-09-25T20:41:27.512Z,10.80
2022-09-25T20:43:56.840Z,10.79
2022-09-25T20:46:24.983Z,10.79
2022-09-25T20:48:57.449Z,10.67
2022-09-25T20:51:27.918Z,10.69
2022-09-25T20:53:57.837Z,10.73
2022-09-25T20:56:25.886Z,10.69
2022-09-25T20:58:55.581Z,10.70
2022-09-25T21:01:27.178Z,10.76
2022-09-25T21:04:00.331Z,10.67
2022-09-25T21:06:29.595Z,10.66
2022-09-25T21:09:00.287Z,10.61
2022-09-25T21:11:30.074Z,10.57
2022-09-25T21:13:59.494Z,10.57
2022-09-25T21:16:28.866Z,10.53
2022-09-25T21:18:59.316Z,10.56
2022-09-25T21:21:28.355Z,10.53
2022-09-25T21:23:58.327Z,10.60
2022-09-25T21:26:31.187Z,10.66
2022-09-25T21:29:00.970Z,10.67
2022-09-25T21:31:31.440Z,10.59
2022-09-25T21:34:00.809Z,10.59
2022-09-25T21:36:29.919Z,10.53
2022-09-25T21:38:59.383Z,10.50
2022-09-25T21:41:29.078Z,10.52
2022-09-25T21:43:58.583Z,10.57
2022-09-25T21:46:27.185Z,10.73
2022-09-25T21:48:57.001Z,10.89
2022-09-25T21:51:28.189Z,10.96
2022-09-25T21:53:56.860Z,11.01
2022-09-25T21:56:26.355Z,10.97
2022-09-25T21:58:56.030Z,10.90
2022-09-25T22:01:25.821Z,10.90
2022-09-25T22:03:55.271Z,10.97
2022-09-25T22:06:23.460Z,10.90
2022-09-25T22:08:54.836Z,10.96
2022-09-25T22:11:23.587Z,10.99
2022-09-25T22:13:52.501Z,10.99
2022-09-25T22:16:22.683Z,11.03
2022-09-25T22:18:53.895Z,11.10
2022-09-25T22:21:23.236Z,11.15
2022-09-25T22:23:52.213Z,11.21
2022-09-25T22:26:21.044Z,11.21
2022-09-25T22:28:49.774Z,11.17
2022-09-25T22:31:18.909Z,11.11
2022-09-25T22:33:48.261Z,11.10
2022-09-25T22:36:16.066Z,11.03
2022-09-25T22:38:43.829Z,10.91
2022-09-25T22:41:14.842Z,10.93
2022-09-25T22:43:42.943Z,10.87
2022-09-25T22:46:12.647Z,10.93
2022-09-25T22:48:40.544Z,10.99
2022-09-25T22:51:11.574Z,11.03
2022-09-25T22:53:39.835Z,10.94
2022-09-25T22:56:14.361Z,10.90
2022-09-25T22:58:42.690Z,10.89
2022-09-25T23:01:14.006Z,10.87
2022-09-25T23:03:41.865Z,10.77
2022-09-25T23:06:09.690Z,10.67
2022-09-25T23:08:38.408Z,10.64
2022-09-25T23:11:08.315Z,10.73
2022-09-25T23:13:37.733Z,10.66
2022-09-25T23:16:07.234Z,10.77
2022-09-25T23:18:36.142Z,10.79
2022-09-25T23:21:04.554Z,10.80
2022-09-25T23:23:32.745Z,10.80
2022-09-25T23:26:03.428Z,10.77
2022-09-25T23:28:33.824Z,10.71
2022-09-25T23:31:13.722Z,10.80
2022-09-25T23:33:42.303Z,10.74
2022-09-25T23:36:12.957Z,10.74
2022-09-25T23:38:41.030Z,10.76
2022-09-25T23:41:16.592Z,10.69
2022-09-25T23:43:45.163Z,10.73
2022-09-25T23:46:16.326Z,10.73
2022-09-25T23:48:44.293Z,10.74
2022-09-25T23:51:12.651Z,10.76
2022-09-25T23:53:41.479Z,10.73
2022-09-25T23:56:10.696Z,10.71
2022-09-25T23:58:38.713Z,10.66
